createdAt,value
2023-02-11T00:01:18.866Z,0.63
2023-02-11T00:03:47.585Z,0.67
2023-02-11T00:06:15.182Z,0.71
2023-02-11T00:08:42.681Z,0.73
2023-02-11T00:11:11.647Z,0.74
2023-02-11T00:13:38.865Z,0.98
2023-02-11T00:16:06.593Z,0.89
2023-02-11T00:18:33.177Z,1.04
2023-02-11T00:21:00.805Z,0.85
2023-02-11T00:23:29.397Z,0.79
2023-02-11T00:25:55.969Z,0.79
2023-02-11T00:28:24.979Z,0.66
2023-02-11T00:30:52.286Z,0.64
2023-02-11T00:33:20.816Z,0.63
2023-02-11T00:35:48.823Z,0.63
2023-02-11T00:38:17.156Z,0.63
2023-02-11T00:40:46.045Z,0.58
2023-02-11T00:43:14.768Z,0.56
2023-02-11T00:45:41.942Z,0.54
2023-02-11T00:48:11.024Z,0.53
2023-02-11T00:50:39.169Z,0.52
2023-02-11T00:53:06.775Z,0.47
2023-02-11T00:55:35.400Z,0.54
2023-02-11T00:58:04.607Z,0.52
2023-02-11T01:00:31.545Z,0.57
2023-02-11T01:02:59.198Z,0.64
2023-02-11T01:05:27.977Z,0.79
2023-02-11T01:07:55.490Z,0.74
2023-02-11T01:10:24.126Z,0.74
2023-02-11T01:12:52.727Z,0.77
2023-02-11T01:15:21.313Z,0.76
2023-02-11T01:17:48.909Z,0.78
2023-02-11T01:20:16.728Z,0.63
2023-02-11T01:22:44.132Z,0.48
2023-02-11T01:25:12.898Z,0.50
2023-02-11T01:27:42.030Z,0.47
2023-02-11T01:30:08.914Z,0.36
2023-02-11T01:32:38.041Z,0.32
2023-02-11T01:35:05.134Z,0.40
2023-02-11T01:37:32.721Z,0.42
2023-02-11T01:40:00.301Z,0.45
2023-02-11T01:42:28.902Z,0.39
2023-02-11T01:44:56.501Z,0.37
2023-02-11T01:47:25.112Z,0.36
2023-02-11T01:49:52.694Z,0.34
2023-02-11T01:52:20.309Z,0.32
2023-02-11T01:54:47.957Z,0.30
2023-02-11T01:57:31.588Z,0.28
2023-02-11T02:00:00.827Z,0.26
2023-02-11T02:02:28.806Z,0.22
2023-02-11T02:04:57.747Z,0.19
2023-02-11T02:07:24.986Z,0.15
2023-02-11T02:09:52.588Z,0.13
2023-02-11T02:12:21.201Z,0.08
2023-02-11T02:14:48.892Z,0.02
2023-02-11T02:17:16.390Z,-0.03
2023-02-11T02:19:42.996Z,-0.07
2023-02-11T02:22:11.759Z,-0.10
2023-02-11T02:24:40.198Z,-0.13
2023-02-11T02:27:09.460Z,-0.17
2023-02-11T02:29:36.438Z,-0.19
2023-02-11T02:32:04.032Z,-0.20
2023-02-11T02:34:33.644Z,-0.22
2023-02-11T02:37:02.248Z,-0.24
2023-02-11T02:39:29.953Z,-0.24
2023-02-11T02:41:57.440Z,-0.20
2023-02-11T02:44:26.044Z,-0.19
2023-02-11T02:46:54.637Z,-0.21
2023-02-11T02:49:23.240Z,-0.21
2023-02-11T02:51:52.449Z,-0.25
2023-02-11T02:54:19.429Z,-0.21
2023-02-11T02:56:48.312Z,-0.25
2023-02-11T02:59:16.640Z,-0.28
2023-02-11T03:01:45.600Z,-0.35
2023-02-11T03:04:13.841Z,-0.39
2023-02-11T03:06:42.439Z,-0.42
2023-02-11T03:09:11.666Z,-0.44
2023-02-11T03:11:39.686Z,-0.46
2023-02-11T03:14:08.615Z,-0.45
2023-02-11T03:16:36.965Z,-0.48
2023-02-11T03:19:05.445Z,-0.50
2023-02-11T03:21:32.090Z,-0.51
2023-02-11T03:24:00.661Z,-0.52
2023-02-11T03:26:29.262Z,-0.53
2023-02-11T03:28:57.856Z,-0.57
2023-02-11T03:31:25.536Z,-0.59
2023-02-11T03:33:54.065Z,-0.61
2023-02-11T03:36:22.684Z,-0.61
2023-02-11T03:38:51.859Z,-0.63
2023-02-11T03:41:20.845Z,-0.65
2023-02-11T03:43:48.505Z,-0.67
2023-02-11T03:46:16.118Z,-0.69
2023-02-11T03:48:44.969Z,-0.71
2023-02-11T03:51:13.327Z,-0.71
2023-02-11T03:53:40.886Z,-0.70
2023-02-11T03:56:08.464Z,-0.74
2023-02-11T03:58:36.086Z,-0.74
2023-02-11T04:01:04.800Z,-0.76
2023-02-11T04:03:32.441Z,-0.77
2023-02-11T04:05:59.982Z,-0.73
2023-02-11T04:08:27.608Z,-0.73
2023-02-11T04:10:56.255Z,-0.72
2023-02-11T04:13:24.817Z,-0.76
2023-02-11T04:15:53.719Z,-0.78
2023-02-11T04:18:22.078Z,-0.81
2023-02-11T04:20:49.663Z,-0.83
2023-02-11T04:23:18.294Z,-0.78
2023-02-11T04:25:46.909Z,-0.80
2023-02-11T04:28:15.595Z,-0.81
2023-02-11T04:30:44.271Z,-0.80
2023-02-11T04:33:11.777Z,-0.81
2023-02-11T04:35:40.407Z,-0.79
2023-02-11T04:38:08.018Z,-0.82
2023-02-11T04:40:35.578Z,-0.84
2023-02-11T04:43:03.174Z,-0.85
2023-02-11T04:45:31.873Z,-0.87
2023-02-11T04:48:00.519Z,-0.89
2023-02-11T04:50:28.265Z,-0.89
2023-02-11T04:52:57.078Z,-0.88
2023-02-11T04:55:25.310Z,-0.88
2023-02-11T04:57:53.908Z,-0.90
2023-02-11T05:00:21.503Z,-0.89
2023-02-11T05:02:50.097Z,-0.89
2023-02-11T05:05:19.048Z,-0.90
2023-02-11T05:07:47.352Z,-0.90
2023-02-11T05:10:14.965Z,-0.89
2023-02-11T05:12:43.543Z,-0.86
2023-02-11T05:15:12.213Z,-0.86
2023-02-11T05:17:41.438Z,-0.87
2023-02-11T05:20:09.532Z,-0.91
2023-02-11T05:22:38.132Z,-0.90
2023-02-11T05:25:07.002Z,-0.91
2023-02-11T05:27:35.325Z,-0.92
2023-02-11T05:30:04.245Z,-0.94
2023-02-11T05:32:31.510Z,-0.92
2023-02-11T05:34:59.108Z,-0.93
2023-02-11T05:37:26.807Z,-0.95
2023-02-11T05:39:54.302Z,-0.94
2023-02-11T05:42:22.898Z,-0.93
2023-02-11T05:44:52.085Z,-0.97
2023-02-11T05:47:20.159Z,-1.00
2023-02-11T05:49:49.154Z,-1.06
2023-02-11T05:52:17.411Z,-1.10
2023-02-11T05:54:46.020Z,-1.10
2023-02-11T05:57:14.977Z,-1.07
2023-02-11T05:59:43.238Z,-1.08
2023-02-11T06:02:11.857Z,-1.09
2023-02-11T06:04:39.556Z,-1.10
2023-02-11T06:07:08.171Z,-1.09
2023-02-11T06:09:35.779Z,-1.11
2023-02-11T06:12:04.871Z,-1.17
2023-02-11T06:14:31.971Z,-1.21
2023-02-11T06:17:00.751Z,-1.24
2023-02-11T06:19:28.329Z,-1.27
2023-02-11T06:21:56.969Z,-1.27
2023-02-11T06:24:51.101Z,-1.25
2023-02-11T06:27:13.261Z,-1.22
2023-02-11T06:29:41.845Z,-1.24
2023-02-11T06:32:28.161Z,-1.23
2023-02-11T06:34:59.893Z,-1.24
2023-02-11T06:37:28.825Z,-1.25
2023-02-11T06:39:57.839Z,-1.24
2023-02-11T06:42:24.996Z,-1.25
2023-02-11T06:44:52.615Z,-1.27
2023-02-11T06:47:21.868Z,-1.26
2023-02-11T06:49:49.835Z,-1.29
2023-02-11T06:52:19.037Z,-1.30
2023-02-11T06:54:47.026Z,-1.29
2023-02-11T06:57:14.661Z,-1.26
2023-02-11T06:59:43.237Z,-1.25
2023-02-11T07:02:11.937Z,-1.26
2023-02-11T07:04:40.851Z,-1.20
2023-02-11T07:07:09.084Z,-1.20
2023-02-11T07:09:37.671Z,-1.20
2023-02-11T07:12:05.243Z,-1.17
2023-02-11T07:14:34.947Z,-1.16
2023-02-11T07:17:03.937Z,-1.16
2023-02-11T07:19:33.092Z,-1.14
2023-02-11T07:22:01.848Z,-1.12
2023-02-11T07:24:29.431Z,-1.11
2023-02-11T07:26:57.023Z,-1.09
2023-02-11T07:29:24.625Z,-1.09
2023-02-11T07:31:53.427Z,-1.09
2023-02-11T07:34:21.896Z,-1.04
2023-02-11T07:36:49.419Z,-1.00
2023-02-11T07:39:18.075Z,-0.95
2023-02-11T07:41:46.656Z,-0.90
2023-02-11T07:44:14.213Z,-0.83
2023-02-11T07:46:41.093Z,-0.76
2023-02-11T07:49:10.248Z,-0.69
2023-02-11T07:51:38.239Z,-0.60
2023-02-11T07:54:07.159Z,-0.49
2023-02-11T07:56:35.494Z,-0.39
2023-02-11T07:59:04.118Z,-0.36
2023-02-11T08:01:31.708Z,-0.29
2023-02-11T08:04:00.731Z,-0.15
2023-02-11T08:06:28.955Z,-0.06
2023-02-11T08:08:58.162Z,0.07
2023-02-11T08:11:25.218Z,0.13
2023-02-11T08:13:53.825Z,0.17
2023-02-11T08:16:21.457Z,0.25
2023-02-11T08:18:48.995Z,0.33
2023-02-11T08:21:17.600Z,0.41
2023-02-11T08:23:46.176Z,0.47
2023-02-11T08:26:15.031Z,0.52
2023-02-11T08:28:43.434Z,0.60
2023-02-11T08:31:11.237Z,0.67
2023-02-11T08:33:40.348Z,0.73
2023-02-11T08:36:09.237Z,0.80
2023-02-11T08:38:36.848Z,0.84
2023-02-11T08:41:04.686Z,0.92
2023-02-11T08:43:32.276Z,0.99
2023-02-11T08:46:02.383Z,1.04
2023-02-11T08:48:30.528Z,1.05
2023-02-11T08:50:58.401Z,1.13
2023-02-11T08:53:25.901Z,1.19
2023-02-11T08:55:53.621Z,1.24
2023-02-11T08:58:21.161Z,1.29
2023-02-11T09:00:49.191Z,1.35
2023-02-11T09:03:18.282Z,1.43
2023-02-11T09:05:47.080Z,1.51
2023-02-11T09:08:13.812Z,1.59
2023-02-11T09:10:40.330Z,1.66
2023-02-11T09:13:08.042Z,1.72
2023-02-11T09:15:35.644Z,1.81
2023-02-11T09:18:02.374Z,1.86
2023-02-11T09:20:29.379Z,1.96
2023-02-11T09:22:56.867Z,2.03
2023-02-11T09:25:25.506Z,2.13
2023-02-11T09:27:53.064Z,2.18
2023-02-11T09:30:22.131Z,2.24
2023-02-11T09:32:50.310Z,2.30
2023-02-11T09:35:20.964Z,2.36
2023-02-11T09:37:49.563Z,2.41
2023-02-11T09:43:02.363Z,2.54
2023-02-11T09:45:33.141Z,2.62
2023-02-11T09:48:03.333Z,2.69
2023-02-11T09:50:31.960Z,2.76
2023-02-11T09:52:59.732Z,2.92
2023-02-11T09:55:27.169Z,2.79
2023-02-11T09:57:56.066Z,2.76
2023-02-11T10:00:24.436Z,2.80
2023-02-11T10:02:52.983Z,2.90
2023-02-11T10:25:06.620Z,3.47
2023-02-11T10:27:33.202Z,3.57
2023-02-11T10:30:00.793Z,3.61
2023-02-11T10:32:27.249Z,3.67
2023-02-11T10:34:53.662Z,3.72
2023-02-11T10:37:20.083Z,3.82
2023-02-11T10:39:47.200Z,3.86
2023-02-11T10:42:13.757Z,3.92
2023-02-11T10:44:40.606Z,3.88
2023-02-11T10:47:07.138Z,3.92
2023-02-11T10:49:33.603Z,3.98
2023-02-11T10:52:01.153Z,4.03
2023-02-11T10:54:27.726Z,4.08
2023-02-11T10:56:56.329Z,4.15
2023-02-11T10:59:23.949Z,4.22
2023-02-11T11:01:51.586Z,4.29
2023-02-11T11:04:19.144Z,4.33
2023-02-11T11:06:45.746Z,4.41
2023-02-11T11:09:12.181Z,4.45
2023-02-11T11:11:38.922Z,4.49
2023-02-11T11:14:05.548Z,4.58
2023-02-11T11:16:32.151Z,4.64
2023-02-11T11:18:58.600Z,4.73
2023-02-11T11:21:25.030Z,4.77
2023-02-11T11:23:51.448Z,4.83
2023-02-11T11:26:18.525Z,4.90
2023-02-11T11:28:45.029Z,4.96
2023-02-11T11:31:11.832Z,5.00
2023-02-11T11:33:39.350Z,5.07
2023-02-11T11:36:06.902Z,5.11
2023-02-11T11:38:33.341Z,5.15
2023-02-11T11:41:00.156Z,5.22
2023-02-11T11:43:26.620Z,5.22
2023-02-11T11:45:53.333Z,5.26
2023-02-11T11:48:19.926Z,5.34
2023-02-11T11:50:46.518Z,5.42
2023-02-11T11:53:12.939Z,5.49
2023-02-11T11:55:39.693Z,5.54
2023-02-11T11:58:06.196Z,5.57
2023-02-11T12:00:33.903Z,5.52
2023-02-11T12:03:01.530Z,5.58
2023-02-11T12:05:29.093Z,5.55
2023-02-11T12:07:55.811Z,5.53
2023-02-11T12:10:22.234Z,5.52
2023-02-11T12:12:48.643Z,5.54
2023-02-11T12:15:15.092Z,5.56
2023-02-11T12:17:41.485Z,5.58
2023-02-11T12:20:08.650Z,5.61
2023-02-11T12:22:35.069Z,5.62
2023-02-11T12:25:01.858Z,5.64
2023-02-11T12:27:29.444Z,5.63
2023-02-11T12:29:57.069Z,5.59
2023-02-11T12:32:23.480Z,5.58
2023-02-11T12:34:50.262Z,5.61
2023-02-11T12:37:17.834Z,5.62
2023-02-11T12:39:44.470Z,5.61
2023-02-11T12:42:10.900Z,5.62
2023-02-11T12:44:37.676Z,5.64
2023-02-11T12:47:04.283Z,5.60
2023-02-11T12:49:30.872Z,5.53
2023-02-11T12:51:57.722Z,5.54
2023-02-11T12:54:25.070Z,5.59
2023-02-11T12:56:51.649Z,5.53
2023-02-11T12:59:18.234Z,5.57
2023-02-11T13:01:44.910Z,5.61
2023-02-11T13:04:12.418Z,5.61
2023-02-11T13:06:38.820Z,5.65
2023-02-11T13:09:05.248Z,5.67
2023-02-11T13:11:32.194Z,5.71
2023-02-11T13:13:58.874Z,5.75
2023-02-11T13:16:26.524Z,5.76
2023-02-11T13:18:53.275Z,5.77
2023-02-11T13:21:19.901Z,5.80
2023-02-11T13:23:46.309Z,5.82
2023-02-11T13:26:12.732Z,5.87
2023-02-11T13:28:39.843Z,5.88
2023-02-11T13:31:07.667Z,5.92
2023-02-11T13:33:35.044Z,5.93
2023-02-11T13:36:04.365Z,5.95
2023-02-11T13:38:32.234Z,5.99
2023-02-11T13:40:58.672Z,5.99
2023-02-11T13:43:25.107Z,5.99
2023-02-11T13:45:51.558Z,6.04
2023-02-11T13:48:18.194Z,6.05
2023-02-11T13:50:44.641Z,6.07
2023-02-11T13:53:11.076Z,6.09
2023-02-11T13:55:37.481Z,6.14
2023-02-11T13:58:03.873Z,6.09
2023-02-11T14:00:30.324Z,6.12
2023-02-11T14:02:57.527Z,6.16
2023-02-11T14:05:24.229Z,6.17
2023-02-11T14:07:51.751Z,6.18
2023-02-11T14:10:18.386Z,6.22
2023-02-11T14:12:45.058Z,6.21
2023-02-11T14:15:12.594Z,6.25
2023-02-11T14:17:39.002Z,6.28
2023-02-11T14:20:05.447Z,6.37
2023-02-11T14:22:31.903Z,6.40
2023-02-11T14:24:58.989Z,6.46
2023-02-11T14:27:25.679Z,6.54
2023-02-11T14:29:52.309Z,6.59
2023-02-11T14:32:18.762Z,6.62
2023-02-11T14:34:45.518Z,6.65
2023-02-11T14:37:11.947Z,6.72
2023-02-11T14:39:38.755Z,6.77
2023-02-11T14:42:06.336Z,6.81
2023-02-11T14:44:32.944Z,6.84
2023-02-11T14:46:59.545Z,6.88
2023-02-11T14:49:27.219Z,6.90
2023-02-11T14:51:53.715Z,6.91
2023-02-11T14:54:20.403Z,6.92
2023-02-11T14:56:47.071Z,6.92
2023-02-11T14:59:15.612Z,6.89
2023-02-11T15:01:42.232Z,6.88
2023-02-11T15:04:09.797Z,6.87
2023-02-11T15:06:36.201Z,6.84
2023-02-11T15:09:02.626Z,6.84
2023-02-11T15:11:29.023Z,6.81
2023-02-11T15:13:57.121Z,6.76
2023-02-11T15:16:23.793Z,6.72
2023-02-11T15:18:50.410Z,6.66
2023-02-11T15:21:16.847Z,6.62
2023-02-11T15:23:43.673Z,6.57
2023-02-11T15:26:10.244Z,6.53
2023-02-11T15:28:36.994Z,6.47
2023-02-11T15:31:03.863Z,6.47
2023-02-11T15:33:31.093Z,6.44
2023-02-11T15:35:58.712Z,6.41
2023-02-11T15:38:25.306Z,6.37
2023-02-11T15:40:51.969Z,6.33
2023-02-11T15:43:19.538Z,6.28
2023-02-11T15:45:48.944Z,6.23
2023-02-11T15:48:15.725Z,6.18
2023-02-11T15:50:42.343Z,6.14
2023-02-11T15:53:08.958Z,6.11
2023-02-11T15:55:35.590Z,6.07
2023-02-11T15:58:01.966Z,6.00
2023-02-11T16:00:29.012Z,5.96
2023-02-11T16:02:55.481Z,5.96
2023-02-11T16:05:22.186Z,5.88
2023-02-11T16:07:48.844Z,5.81
2023-02-11T16:10:15.269Z,5.70
2023-02-11T16:12:42.188Z,5.62
2023-02-11T16:15:08.617Z,5.54
2023-02-11T16:17:35.402Z,5.48
2023-02-11T16:20:02.173Z,5.40
2023-02-11T16:22:29.647Z,5.34
2023-02-11T16:24:56.101Z,5.28
2023-02-11T16:27:22.845Z,5.23
2023-02-11T16:29:49.279Z,5.16
2023-02-11T16:32:15.711Z,5.05
2023-02-11T16:34:42.124Z,4.96
2023-02-11T16:37:09.524Z,4.87
2023-02-11T16:39:37.089Z,4.80
2023-02-11T16:42:05.765Z,4.74
2023-02-11T16:44:33.555Z,4.68
2023-02-11T16:47:00.042Z,4.65
2023-02-11T16:49:26.514Z,4.63
2023-02-11T16:51:53.101Z,4.59
2023-02-11T16:54:19.722Z,4.57
2023-02-11T16:56:46.164Z,4.53
2023-02-11T16:59:12.934Z,4.49
2023-02-11T17:01:39.597Z,4.44
2023-02-11T17:04:06.398Z,4.40
2023-02-11T17:06:32.918Z,4.34
2023-02-11T17:08:59.366Z,4.30
2023-02-11T17:11:25.766Z,4.23
2023-02-11T17:13:52.175Z,4.20
2023-02-11T17:16:20.265Z,4.16
2023-02-11T17:18:46.663Z,4.11
2023-02-11T17:21:13.458Z,4.06
2023-02-11T17:23:39.913Z,4.05
2023-02-11T17:26:06.358Z,4.02
2023-02-11T17:28:32.973Z,3.99
2023-02-11T17:30:59.411Z,3.94
2023-02-11T17:33:25.869Z,3.90
2023-02-11T17:35:52.570Z,3.91
2023-02-11T17:38:19.149Z,3.93
2023-02-11T17:40:45.592Z,3.90
2023-02-11T17:43:13.053Z,3.86
2023-02-11T17:45:40.616Z,3.80
2023-02-11T17:48:09.173Z,3.78
2023-02-11T17:50:35.759Z,3.72
2023-02-11T17:53:02.226Z,3.70
2023-02-11T17:55:28.646Z,3.66
2023-02-11T17:57:55.539Z,3.67
2023-02-11T18:00:22.135Z,3.64
2023-02-11T18:02:50.739Z,3.64
2023-02-11T18:05:18.357Z,3.63
2023-02-11T18:07:45.948Z,3.62
2023-02-11T18:10:19.236Z,3.58
2023-02-11T18:12:46.160Z,3.54
2023-02-11T18:15:12.754Z,3.50
2023-02-11T18:17:39.345Z,3.47
2023-02-11T18:20:05.925Z,3.44
2023-02-11T18:22:34.541Z,3.42
2023-02-11T18:25:00.956Z,3.39
2023-02-11T18:27:27.469Z,3.36
2023-02-11T18:29:53.921Z,3.33
2023-02-11T18:32:20.343Z,3.32
2023-02-11T18:34:46.772Z,3.28
2023-02-11T18:37:14.113Z,3.25
2023-02-11T18:39:40.699Z,3.22
2023-02-11T18:42:08.336Z,3.19
2023-02-11T18:44:34.727Z,3.17
2023-02-11T18:47:01.527Z,3.11
2023-02-11T18:49:29.088Z,3.08
2023-02-11T18:51:55.718Z,3.05
2023-02-11T18:54:24.322Z,3.04
2023-02-11T18:56:51.943Z,3.04
2023-02-11T18:59:18.547Z,3.07
2023-02-11T19:01:45.331Z,3.08
2023-02-11T19:04:12.794Z,3.13
2023-02-11T19:06:39.532Z,3.17
2023-02-11T19:09:06.132Z,3.14
2023-02-11T19:11:32.532Z,3.10
2023-02-11T19:13:58.937Z,3.08
2023-02-11T19:16:25.397Z,3.04
2023-02-11T19:18:52.513Z,3.01
2023-02-11T19:21:19.127Z,3.03
2023-02-11T19:23:46.755Z,3.02
2023-02-11T19:26:14.405Z,2.99
2023-02-11T19:28:42.010Z,3.02
2023-02-11T19:31:08.570Z,3.01
2023-02-11T19:33:35.229Z,2.95
2023-02-11T19:36:01.845Z,2.92
2023-02-11T19:38:29.431Z,2.99
2023-02-11T19:40:58.231Z,2.96
2023-02-11T19:43:25.627Z,2.94
2023-02-11T19:45:52.215Z,2.93
2023-02-11T19:48:18.880Z,2.88
2023-02-11T19:50:45.293Z,2.83
2023-02-11T19:53:12.020Z,2.80
2023-02-11T19:55:38.459Z,2.77
2023-02-11T19:58:05.239Z,2.72
2023-02-11T20:00:31.826Z,2.72
2023-02-11T20:02:58.531Z,2.76
2023-02-11T20:05:26.021Z,2.75
2023-02-11T20:07:52.638Z,2.70
2023-02-11T20:10:19.239Z,2.71
2023-02-11T20:12:46.845Z,2.71
2023-02-11T20:15:13.464Z,2.71
2023-02-11T20:17:39.885Z,2.72
2023-02-11T20:20:06.328Z,2.75
2023-02-11T20:22:33.515Z,2.72
2023-02-11T20:25:00.973Z,2.70
2023-02-11T20:27:27.775Z,2.72
2023-02-11T20:29:55.182Z,2.64
2023-02-11T20:32:22.037Z,2.62
2023-02-11T20:34:48.548Z,2.65
2023-02-11T20:37:14.944Z,2.61
2023-02-11T20:39:41.396Z,2.61
2023-02-11T20:42:07.822Z,2.61
2023-02-11T20:44:34.286Z,2.63
2023-02-11T20:47:01.002Z,2.63
2023-02-11T20:49:27.609Z,2.60
2023-02-11T20:51:54.461Z,2.62
2023-02-11T20:54:20.983Z,2.64
2023-02-11T20:56:48.614Z,2.63
2023-02-11T20:59:16.058Z,2.62
2023-02-11T21:01:42.814Z,2.63
2023-02-11T21:04:10.238Z,2.60
2023-02-11T21:06:37.873Z,2.63
2023-02-11T21:09:05.472Z,2.64
2023-02-11T21:11:32.101Z,2.64
2023-02-11T21:13:58.575Z,2.59
2023-02-11T21:16:25.039Z,2.57
2023-02-11T21:18:51.528Z,2.60
2023-02-11T21:21:17.965Z,2.66
2023-02-11T21:23:44.434Z,2.60
2023-02-11T21:26:10.835Z,2.57
2023-02-11T21:28:40.464Z,2.57
2023-02-11T21:31:07.506Z,2.58
2023-02-11T21:33:35.675Z,2.57
2023-02-11T21:36:02.260Z,2.54
2023-02-11T21:38:28.662Z,2.54
2023-02-11T21:40:55.106Z,2.55
2023-02-11T21:43:21.532Z,2.52
2023-02-11T21:45:48.795Z,2.57
2023-02-11T21:48:15.252Z,2.58
2023-02-11T21:50:42.130Z,2.59
2023-02-11T21:53:08.711Z,2.56
2023-02-11T21:55:35.313Z,2.60
2023-02-11T21:58:02.905Z,2.60
2023-02-11T22:00:29.423Z,2.58
2023-02-11T22:02:55.849Z,2.59
2023-02-11T22:05:22.297Z,2.50
2023-02-11T22:07:49.408Z,2.50
2023-02-11T22:10:16.087Z,2.49
2023-02-11T22:12:42.757Z,2.42
2023-02-11T22:15:09.450Z,2.45
2023-02-11T22:17:37.100Z,2.38
2023-02-11T22:20:04.682Z,2.40
2023-02-11T22:22:32.276Z,2.39
2023-02-11T22:24:59.862Z,2.39
2023-02-11T22:27:28.561Z,2.36
2023-02-11T22:29:56.067Z,2.29
2023-02-11T22:32:23.025Z,2.21
2023-02-11T22:34:53.217Z,2.17
2023-02-11T22:37:23.016Z,2.16
2023-02-11T22:39:49.992Z,2.14
2023-02-11T22:42:17.562Z,2.15
2023-02-11T22:44:45.186Z,2.08
2023-02-11T22:47:12.106Z,2.05
2023-02-11T22:49:41.082Z,2.03
2023-02-11T22:52:09.362Z,2.01
2023-02-11T22:54:36.971Z,1.98
2023-02-11T22:57:04.627Z,2.02
2023-02-11T22:59:32.274Z,2.03
2023-02-11T23:02:00.027Z,2.01
2023-02-11T23:04:27.534Z,2.06
2023-02-11T23:06:54.254Z,2.01
2023-02-11T23:09:21.838Z,2.04
2023-02-11T23:11:50.583Z,2.01
2023-02-11T23:14:18.089Z,2.01
2023-02-11T23:16:44.814Z,2.01
2023-02-11T23:19:12.433Z,2.02
2023-02-11T23:21:40.038Z,2.02
2023-02-11T23:24:07.647Z,2.03
2023-02-11T23:26:34.477Z,2.03
2023-02-11T23:29:02.024Z,2.01
2023-02-11T23:31:28.897Z,1.98
2023-02-11T23:33:57.277Z,1.99
2023-02-11T23:36:26.146Z,2.02
2023-02-11T23:38:53.496Z,2.03
2023-02-11T23:41:22.085Z,2.02
2023-02-11T23:43:50.771Z,2.13
2023-02-11T23:46:18.383Z,2.03
2023-02-11T23:48:47.592Z,1.98
2023-02-11T23:51:14.505Z,1.94
2023-02-11T23:53:43.093Z,1.94
2023-02-11T23:56:09.715Z,1.93
2023-02-11T23:58:38.381Z,1.92
